Time,TemperatureF,DewpointF,PressureIn,WindDirection,WindDirectionDegrees,WindSpeedMPH,WindSpeedGustMPH,Humidity,HourlyPrecipIn,Conditions,Clouds,dailyrainin,SoftwareType,DateUTC
2013-12-03 00:03:00,48.4,30.6,29.75,East,90,0.0,0.0,50,0.00,,,0.00,WUHU21623XXSP,2013-12-03 08:03:00,
2013-12-03 00:13:00,48.4,30.6,29.74,ENE,67,0.0,0.0,50,0.00,,,0.00,WUHU21623XXSP,2013-12-03 08:13:00,
2013-12-03 00:19:00,48.0,30.7,29.74,East,90,0.0,0.0,51,0.00,,,0.00,WUHU21623XXSP,2013-12-03 08:19:00,
2013-12-03 00:24:00,48.0,30.7,29.74,SE,135,0.0,0.0,51,0.00,,,0.00,WUHU21623XXSP,2013-12-03 08:24:00,
2013-12-03 00:29:00,48.0,30.7,29.72,SE,135,1.6,1.6,51,0.00,,,0.00,WUHU21623XXSP,2013-12-03 08:29:00,
2013-12-03 00:34:00,48.0,31.1,29.72,North,0,2.0,2.0,52,0.00,,,0.00,WUHU21623XXSP,2013-12-03 08:34:00,
2013-12-03 00:40:00,48.2,31.8,29.72,South,180,6.3,6.3,53,0.00,,,0.00,WUHU21623XXSP,2013-12-03 08:40:00,
2013-12-03 00:45:00,48.4,31.9,29.72,ENE,67,0.0,6.3,53,0.00,,,0.00,WUHU21623XXSP,2013-12-03 08:45:00,
2013-12-03 00:50:00,48.6,32.1,29.72,SSE,157,11.6,11.6,53,0.00,,,0.00,WUHU21623XXSP,2013-12-03 08:50:00,
2013-12-03 00:55:00,48.7,32.3,29.72,WSW,247,7.8,11.6,53,0.00,,,0.00,WUHU21623XXSP,2013-12-03 08:55:00,
2013-12-03 01:00:00,48.7,32.3,29.72,WSW,247,7.8,7.8,53,0.00,,,0.00,WUHU21623XXSP,2013-12-03 09:00:00,
2013-12-03 01:06:00,48.7,32.3,29.71,SSW,202,14.5,14.5,53,0.00,,,0.00,WUHU21623XXSP,2013-12-03 09:06:00,
2013-12-03 01:10:00,48.7,32.8,29.71,SSW,202,4.9,14.5,54,0.00,,,0.00,WUHU21623XXSP,2013-12-03 09:10:00,
2013-12-03 01:19:00,48.7,32.8,29.70,SE,135,2.9,2.9,55,0.00,,,0.00,WUHU21623XXSP,2013-12-03 09:19:00,
2013-12-03 01:24:00,48.7,33.2,29.71,WSW,247,13.2,13.2,55,0.00,,,0.00,WUHU21623XXSP,2013-12-03 09:24:00,
2013-12-03 01:29:00,48.7,33.7,29.71,East,90,2.0,13.2,56,0.00,,,0.00,WUHU21623XXSP,2013-12-03 09:29:00,
2013-12-03 01:34:00,48.6,33.5,29.71,South,180,7.4,7.4,57,0.00,,,0.00,WUHU21623XXSP,2013-12-03 09:34:00,
2013-12-03 01:39:00,48.4,34.3,29.71,SSW,202,1.1,7.4,58,0.00,,,0.00,WUHU21623XXSP,2013-12-03 09:39:00,
2013-12-03 01:47:00,48.0,33.5,29.70,SSW,202,6.7,6.7,57,0.00,,,0.00,WUHU21623XXSP,2013-12-03 09:47:00,
2013-12-03 02:01:00,47.8,32.8,29.70,ESE,112,3.4,3.4,56,0.00,,,0.00,WUHU21623XXSP,2013-12-03 10:01:00,
2013-12-03 02:06:00,48.0,33.0,29.69,NNE,22,0.0,3.4,56,0.00,,,0.00,WUHU21623XXSP,2013-12-03 10:06:00,
2013-12-03 02:15:00,48.4,32.9,29.68,South,180,6.3,6.3,55,0.00,,,0.00,WUHU21623XXSP,2013-12-03 10:15:00,
2013-12-03 02:23:00,48.4,32.9,29.68,ESE,112,4.0,6.3,55,0.00,,,0.00,WUHU21623XXSP,2013-12-03 10:23:00,
2013-12-03 02:34:00,48.2,33.2,29.68,ESE,112,4.0,4.0,56,0.00,,,0.00,WUHU21623XXSP,2013-12-03 10:34:00,
2013-12-03 02:40:00,48.0,33.5,29.68,SSW,202,10.7,10.7,57,0.00,,,0.00,WUHU21623XXSP,2013-12-03 10:40:00,
2013-12-03 02:47:00,48.0,33.9,29.68,SSW,202,4.9,10.7,58,0.00,,,0.00,WUHU21623XXSP,2013-12-03 10:47:00,
2013-12-03 02:55:00,47.3,34.2,29.68,SSW,202,11.9,11.9,60,0.00,,,0.00,WUHU21623XXSP,2013-12-03 10:55:00,
2013-12-03 03:00:00,47.3,34.2,29.68,SSW,202,11.9,11.9,60,0.00,,,0.00,WUHU21623XXSP,2013-12-03 11:00:00,
2013-12-03 03:05:00,47.1,34.0,29.68,South,180,17.9,17.9,60,0.00,,,0.00,WUHU21623XXSP,2013-12-03 11:05:00,
2013-12-03 03:17:00,46.6,34.2,29.66,SSE,157,0.0,0.0,62,0.00,,,0.00,WUHU21623XXSP,2013-12-03 11:17:00,
2013-12-03 03:22:00,46.2,33.9,29.66,WNW,292,0.0,0.0,62,0.00,,,0.00,WUHU21623XXSP,2013-12-03 11:22:00,
2013-12-03 03:27:00,45.9,33.9,29.66,West,270,0.0,0.0,63,0.00,,,0.00,WUHU21623XXSP,2013-12-03 11:27:00,
2013-12-03 03:32:00,45.7,33.9,29.66,West,270,0.0,0.0,63,0.00,,,0.00,WUHU21623XXSP,2013-12-03 11:32:00,
2013-12-03 03:38:00,45.5,33.6,29.65,NNW,337,2.0,2.0,63,0.00,,,0.00,WUHU21623XXSP,2013-12-03 11:38:00,
2013-12-03 03:45:00,45.3,33.8,29.65,WNW,292,0.0,2.0,64,0.00,,,0.00,WUHU21623XXSP,2013-12-03 11:45:00,
2013-12-03 03:50:00,45.1,33.7,29.65,North,0,0.0,0.0,64,0.00,,,0.00,WUHU21623XXSP,2013-12-03 11:50:00,
2013-12-03 03:55:00,45.0,33.5,29.64,West,270,3.4,3.4,64,0.00,,,0.00,WUHU21623XXSP,2013-12-03 11:55:00,
2013-12-03 04:00:00,45.0,33.5,29.64,West,270,3.4,3.4,64,0.00,,,0.00,WUHU21623XXSP,2013-12-03 12:00:00,
2013-12-03 04:05:00,44.6,33.5,29.64,WNW,292,0.0,0.0,65,0.00,,,0.00,WUHU21623XXSP,2013-12-03 12:05:00,
2013-12-03 04:10:00,44.4,33.4,29.64,WNW,292,8.5,8.5,65,0.00,,,0.00,WUHU21623XXSP,2013-12-03 12:10:00,
2013-12-03 04:15:00,44.4,33.7,29.64,West,270,3.4,8.5,66,0.00,,,0.00,WUHU21623XXSP,2013-12-03 12:15:00,
2013-12-03 04:20:00,44.2,33.6,29.64,South,180,4.7,4.7,66,0.00,,,0.00,WUHU21623XXSP,2013-12-03 12:20:00,
2013-12-03 04:27:00,44.4,34.1,29.62,ESE,112,1.1,4.7,67,0.00,,,0.00,WUHU21623XXSP,2013-12-03 12:27:00,
2013-12-03 04:34:00,44.4,34.1,29.62,ESE,112,1.1,1.1,67,0.00,,,0.00,WUHU21623XXSP,2013-12-03 12:34:00,
2013-12-03 04:39:00,44.4,33.7,29.63,South,180,13.2,13.2,66,0.00,,,0.00,WUHU21623XXSP,2013-12-03 12:39:00,
2013-12-03 04:44:00,44.6,34.3,29.62,South,180,0.7,13.2,67,0.00,,,0.00,WUHU21623XXSP,2013-12-03 12:44:00,
2013-12-03 04:50:00,44.6,33.9,29.63,South,180,0.0,0.7,66,0.00,,,0.00,WUHU21623XXSP,2013-12-03 12:50:00,
2013-12-03 04:55:00,44.4,33.7,29.62,SSE,157,2.0,2.0,66,0.00,,,0.00,WUHU21623XXSP,2013-12-03 12:55:00,
2013-12-03 05:00:00,44.4,33.9,29.62,ESE,112,4.9,4.9,66,0.00,,,0.00,WUHU21623XXSP,2013-12-03 13:00:00,
2013-12-03 05:05:00,44.4,33.7,29.63,WNW,292,9.4,9.4,66,0.00,,,0.00,WUHU21623XXSP,2013-12-03 13:05:00,
2013-12-03 05:10:00,44.4,33.7,29.62,NNW,337,0.0,9.4,66,0.00,,,0.00,WUHU21623XXSP,2013-12-03 13:10:00,
2013-12-03 05:15:00,44.4,33.7,29.62,WSW,247,0.0,0.0,66,0.00,,,0.00,WUHU21623XXSP,2013-12-03 13:15:00,
2013-12-03 05:20:00,44.2,33.6,29.63,WNW,292,4.5,4.5,66,0.00,,,0.00,WUHU21623XXSP,2013-12-03 13:20:00,
2013-12-03 05:25:00,44.2,33.6,29.63,West,270,0.0,4.5,66,0.00,,,0.00,WUHU21623XXSP,2013-12-03 13:25:00,
2013-12-03 05:30:00,44.2,33.6,29.63,South,180,0.0,0.0,66,0.00,,,0.00,WUHU21623XXSP,2013-12-03 13:30:00,
2013-12-03 05:35:00,43.9,33.6,29.63,South,180,0.0,0.0,65,0.00,,,0.00,WUHU21623XXSP,2013-12-03 13:35:00,
2013-12-03 05:42:00,43.5,32.5,29.63,SW,225,1.3,5.1,65,0.00,,,0.00,WUHU21623XXSP,2013-12-03 13:42:00,
2013-12-03 05:47:00,43.5,32.5,29.63,WSW,247,0.9,1.3,65,0.00,,,0.00,WUHU21623XXSP,2013-12-03 13:47:00,
2013-12-03 05:55:00,43.2,32.2,29.63,ESE,112,0.0,0.9,65,0.00,,,0.00,WUHU21623XXSP,2013-12-03 13:55:00,
2013-12-03 06:00:00,43.2,32.2,29.63,ESE,112,0.0,0.0,65,0.00,,,0.00,WUHU21623XXSP,2013-12-03 14:00:00,
2013-12-03 06:05:00,43.0,32.0,29.63,SE,135,0.0,0.0,65,0.00,,,0.00,WUHU21623XXSP,2013-12-03 14:05:00,
2013-12-03 06:19:00,42.4,31.9,29.62,North,0,0.0,0.0,66,0.00,,,0.00,WUHU21623XXSP,2013-12-03 14:19:00,
2013-12-03 06:24:00,42.4,31.9,29.62,SW,225,2.0,2.0,66,0.00,,,0.00,WUHU21623XXSP,2013-12-03 14:24:00,
2013-12-03 06:29:00,42.1,31.1,29.62,WSW,247,3.6,3.6,66,0.00,,,0.00,WUHU21623XXSP,2013-12-03 14:29:00,
2013-12-03 06:38:00,42.1,31.5,29.63,NNE,22,0.0,3.6,66,0.00,,,0.00,WUHU21623XXSP,2013-12-03 14:38:00,
2013-12-03 06:44:00,41.9,31.4,29.62,South,180,1.8,1.8,66,0.00,,,0.00,WUHU21623XXSP,2013-12-03 14:44:00,
2013-12-03 06:55:00,41.9,31.4,29.61,WSW,247,3.6,3.6,66,0.00,,,0.00,WUHU21623XXSP,2013-12-03 14:55:00,
2013-12-03 07:00:00,41.9,31.4,29.62,SSW,202,9.2,9.2,66,0.00,,,0.00,WUHU21623XXSP,2013-12-03 15:00:00,
2013-12-03 07:05:00,41.9,31.4,29.62,SSW,202,9.2,9.2,66,0.00,,,0.00,WUHU21623XXSP,2013-12-03 15:05:00,
2013-12-03 07:10:00,41.9,31.0,29.63,East,90,4.0,4.0,65,0.00,,,0.00,WUHU21623XXSP,2013-12-03 15:10:00,
2013-12-03 07:16:00,41.9,30.6,29.62,SE,135,4.9,4.9,64,0.00,,,0.00,WUHU21623XXSP,2013-12-03 15:16:00,
2013-12-03 07:22:00,41.9,30.6,29.62,SSE,157,4.5,4.9,64,0.00,,,0.00,WUHU21623XXSP,2013-12-03 15:22:00,
2013-12-03 07:27:00,41.9,30.6,29.62,SW,225,8.3,8.3,64,0.00,,,0.00,WUHU21623XXSP,2013-12-03 15:27:00,
2013-12-03 07:32:00,41.7,30.8,29.61,SSE,157,4.9,8.3,65,0.00,,,0.00,WUHU21623XXSP,2013-12-03 15:32:00,
2013-12-03 07:37:00,41.7,30.8,29.60,SSW,202,16.3,16.3,64,0.00,,,0.00,WUHU21623XXSP,2013-12-03 15:37:00,
2013-12-03 07:42:00,41.5,30.2,29.59,SW,225,13.4,16.3,64,0.00,,,0.00,WUHU21623XXSP,2013-12-03 15:42:00,
2013-12-03 07:47:00,41.7,30.4,29.60,NW,315,2.0,13.4,64,0.00,,,0.00,WUHU21623XXSP,2013-12-03 15:47:00,
2013-12-03 07:53:00,41.9,30.6,29.60,SSW,202,7.2,7.2,64,0.00,,,0.00,WUHU21623XXSP,2013-12-03 15:53:00,
2013-12-03 07:58:00,42.1,30.3,29.61,ESE,112,5.8,7.2,63,0.00,,,0.00,WUHU21623XXSP,2013-12-03 15:58:00,
2013-12-03 08:03:00,42.1,30.3,29.62,South,180,4.7,5.8,63,0.00,,,0.00,WUHU21623XXSP,2013-12-03 16:03:00,
2013-12-03 08:08:00,42.3,30.5,29.62,SW,225,3.4,4.7,63,0.00,,,0.00,WUHU21623XXSP,2013-12-03 16:08:00,
2013-12-03 08:14:00,42.4,30.3,29.62,North,0,0.0,3.4,62,0.00,,,0.00,WUHU21623XXSP,2013-12-03 16:14:00,
2013-12-03 08:23:00,42.4,30.3,29.63,West,270,8.5,8.5,62,0.00,,,0.00,WUHU21623XXSP,2013-12-03 16:23:00,
2013-12-03 08:29:00,42.6,30.1,29.64,West,270,4.9,8.5,61,0.00,,,0.00,WUHU21623XXSP,2013-12-03 16:29:00,
2013-12-03 08:36:00,42.8,30.2,29.64,NNW,337,2.2,4.9,61,0.00,,,0.00,WUHU21623XXSP,2013-12-03 16:36:00,
2013-12-03 08:41:00,43.0,30.4,29.64,WNW,292,3.4,3.4,61,0.00,,,0.00,WUHU21623XXSP,2013-12-03 16:41:00,
2013-12-03 08:46:00,43.0,30.4,29.64,SW,225,0.0,3.4,60,0.00,,,0.00,WUHU21623XXSP,2013-12-03 16:46:00,
2013-12-03 08:55:00,42.6,29.7,29.64,NNE,22,7.2,7.2,60,0.00,,,0.00,WUHU21623XXSP,2013-12-03 16:55:00,
2013-12-03 09:00:00,42.1,29.2,29.65,NNE,22,5.1,7.2,60,0.00,,,0.00,WUHU21623XXSP,2013-12-03 17:00:00,
2013-12-03 09:05:00,41.4,28.5,29.65,NW,315,4.9,5.1,60,0.00,,,0.00,WUHU21623XXSP,2013-12-03 17:05:00,
2013-12-03 09:10:00,40.3,27.9,29.66,NNW,337,7.8,7.8,61,0.00,,,0.00,WUHU21623XXSP,2013-12-03 17:10:00,
2013-12-03 09:19:00,39.0,27.4,29.65,WNW,292,10.3,10.3,62,0.00,,,0.00,WUHU21623XXSP,2013-12-03 17:19:00,
2013-12-03 09:24:00,38.7,27.0,29.65,WNW,292,10.3,10.3,62,0.00,,,0.00,WUHU21623XXSP,2013-12-03 17:24:00,
2013-12-03 09:31:00,37.9,26.4,29.65,North,0,8.5,10.3,63,0.00,,,0.00,WUHU21623XXSP,2013-12-03 17:31:00,
2013-12-03 09:38:00,37.4,25.9,29.66,WNW,292,5.8,8.5,63,0.00,,,0.00,WUHU21623XXSP,2013-12-03 17:38:00,
2013-12-03 09:48:00,36.3,25.3,29.66,NNW,337,14.3,14.3,64,0.00,,,0.00,WUHU21623XXSP,2013-12-03 17:48:00,
2013-12-03 09:53:00,35.8,24.8,29.67,NNW,337,15.4,15.4,64,0.00,,,0.00,WUHU21623XXSP,2013-12-03 17:53:00,
2013-12-03 10:06:00,34.5,23.2,29.66,NNW,337,12.1,12.1,63,0.00,,,0.00,WUHU21623XXSP,2013-12-03 18:06:00,
2013-12-03 10:12:00,33.6,22.7,29.67,NW,315,19.5,19.5,64,0.00,,,0.00,WUHU21623XXSP,2013-12-03 18:12:00,
2013-12-03 10:17:00,33.3,22.7,29.67,NW,315,21.0,21.0,65,0.00,,,0.00,WUHU21623XXSP,2013-12-03 18:17:00,
2013-12-03 10:22:00,32.7,22.4,29.67,NW,315,21.0,21.0,66,0.00,,,0.00,WUHU21623XXSP,2013-12-03 18:22:00,
2013-12-03 10:27:00,32.2,22.2,29.67,WNW,292,21.3,21.9,66,0.00,,,0.00,WUHU21623XXSP,2013-12-03 18:27:00,
2013-12-03 10:32:00,31.8,22.1,29.68,WNW,292,21.3,21.9,67,0.00,,,0.00,WUHU21623XXSP,2013-12-03 18:32:00,
2013-12-03 10:38:00,31.6,21.9,29.67,NW,315,21.5,21.5,67,0.00,,,0.00,WUHU21623XXSP,2013-12-03 18:38:00,
2013-12-03 10:43:00,31.5,22.1,29.67,WNW,292,12.3,21.5,68,0.00,,,0.00,WUHU21623XXSP,2013-12-03 18:43:00,
2013-12-03 10:48:00,31.1,22.1,29.66,NW,315,8.5,12.3,69,0.00,,,0.00,WUHU21623XXSP,2013-12-03 18:48:00,
2013-12-03 10:53:00,30.9,21.9,29.66,NW,315,9.2,11.6,69,0.00,,,0.00,WUHU21623XXSP,2013-12-03 18:53:00,
2013-12-03 10:58:00,30.7,21.7,29.66,WNW,292,12.3,12.3,69,0.00,,,0.00,WUHU21623XXSP,2013-12-03 18:58:00,
2013-12-03 11:03:00,30.4,21.7,29.66,West,270,11.6,12.3,70,0.00,,,0.00,WUHU21623XXSP,2013-12-03 19:03:00,
2013-12-03 11:08:00,30.0,21.4,29.65,NW,315,17.0,17.0,70,0.00,,,0.00,WUHU21623XXSP,2013-12-03 19:08:00,
2013-12-03 11:14:00,30.0,21.4,29.66,West,270,16.3,17.0,70,0.00,,,0.00,WUHU21623XXSP,2013-12-03 19:14:00,
2013-12-03 11:20:00,29.8,21.2,29.66,NNE,22,6.5,16.3,70,0.00,,,0.00,WUHU21623XXSP,2013-12-03 19:20:00,
2013-12-03 11:26:00,29.5,21.1,29.66,NW,315,10.5,10.5,70,0.00,,,0.00,WUHU21623XXSP,2013-12-03 19:26:00,
2013-12-03 11:31:00,29.3,20.8,29.67,WNW,292,11.2,11.2,70,0.00,,,0.00,WUHU21623XXSP,2013-12-03 19:31:00,
2013-12-03 11:40:00,29.1,20.9,29.66,WNW,292,7.8,11.2,71,0.00,,,0.00,WUHU21623XXSP,2013-12-03 19:40:00,
2013-12-03 11:45:00,28.9,20.7,29.66,NNW,337,11.6,11.6,71,0.00,,,0.00,WUHU21623XXSP,2013-12-03 19:45:00,
2013-12-03 11:50:00,28.6,20.7,29.66,North,0,16.3,16.3,72,0.00,,,0.00,WUHU21623XXSP,2013-12-03 19:50:00,
2013-12-03 11:55:00,28.4,20.9,29.66,North,0,12.1,16.3,73,0.00,,,0.00,WUHU21623XXSP,2013-12-03 19:55:00,
2013-12-03 12:00:00,28.2,20.7,29.66,NNW,337,10.5,12.1,73,0.00,,,0.00,WUHU21623XXSP,2013-12-03 20:00:00,
2013-12-03 12:05:00,28.0,20.8,29.66,NNW,337,9.6,10.5,74,0.00,,,0.00,WUHU21623XXSP,2013-12-03 20:05:00,
2013-12-03 12:10:00,27.7,20.4,29.67,North,0,11.0,11.0,74,0.00,,,0.00,WUHU21623XXSP,2013-12-03 20:10:00,
2013-12-03 12:15:00,27.5,20.3,29.67,WNW,292,8.9,11.0,74,0.00,,,0.00,WUHU21623XXSP,2013-12-03 20:15:00,
2013-12-03 12:20:00,27.3,20.4,29.67,NNE,22,6.3,8.9,75,0.00,,,0.00,WUHU21623XXSP,2013-12-03 20:20:00,
2013-12-03 12:26:00,27.3,20.4,29.68,WNW,292,15.7,15.7,75,0.00,,,0.00,WUHU21623XXSP,2013-12-03 20:26:00,
2013-12-03 12:31:00,27.1,20.2,29.68,NNE,22,5.1,15.7,75,0.00,,,0.00,WUHU21623XXSP,2013-12-03 20:31:00,
2013-12-03 12:36:00,27.0,20.0,29.68,NW,315,7.2,7.2,75,0.00,,,0.00,WUHU21623XXSP,2013-12-03 20:36:00,
2013-12-03 12:46:00,26.6,19.4,29.68,North,0,6.9,6.9,74,0.00,,,0.00,WUHU21623XXSP,2013-12-03 20:46:00,
2013-12-03 12:53:00,26.6,19.4,29.68,NW,315,4.7,6.9,74,0.00,,,0.00,WUHU21623XXSP,2013-12-03 20:53:00,
2013-12-03 12:58:00,26.6,19.4,29.69,NNE,22,5.6,5.6,74,0.00,,,0.00,WUHU21623XXSP,2013-12-03 20:58:00,
2013-12-03 13:03:00,26.6,19.4,29.69,NNE,22,5.8,5.8,74,0.00,,,0.00,WUHU21623XXSP,2013-12-03 21:03:00,
2013-12-03 13:08:00,26.4,19.2,29.69,NNE,22,9.6,9.6,74,0.00,,,0.00,WUHU21623XXSP,2013-12-03 21:08:00,
2013-12-03 13:13:00,26.4,19.2,29.69,NNW,337,8.1,9.6,74,0.00,,,0.00,WUHU21623XXSP,2013-12-03 21:13:00,
2013-12-03 13:18:00,26.4,19.2,29.69,NW,315,11.6,11.6,74,0.00,,,0.00,WUHU21623XXSP,2013-12-03 21:18:00,
2013-12-03 13:29:00,26.6,19.7,29.69,NNE,22,3.8,3.8,75,0.00,,,0.00,WUHU21623XXSP,2013-12-03 21:29:00,
2013-12-03 13:36:00,26.8,19.4,29.69,NW,315,1.8,3.8,74,0.00,,,0.00,WUHU21623XXSP,2013-12-03 21:36:00,
2013-12-03 13:41:00,26.8,19.5,29.70,North,0,2.9,2.9,74,0.00,,,0.00,WUHU21623XXSP,2013-12-03 21:41:00,
2013-12-03 13:46:00,26.8,19.2,29.69,NNE,22,4.5,4.5,73,0.00,,,0.00,WUHU21623XXSP,2013-12-03 21:46:00,
2013-12-03 13:51:00,26.8,19.2,29.70,North,0,2.9,4.5,73,0.00,,,0.00,WUHU21623XXSP,2013-12-03 21:51:00,
2013-12-03 13:56:00,26.6,19.2,29.70,North,0,4.5,4.5,73,0.00,,,0.00,WUHU21623XXSP,2013-12-03 21:56:00,
2013-12-03 14:01:00,26.6,19.2,29.70,NNW,337,3.6,5.4,74,0.00,,,0.00,WUHU21623XXSP,2013-12-03 22:01:00,
2013-12-03 14:06:00,26.4,19.2,29.70,WNW,292,5.4,5.4,74,0.00,,,0.00,WUHU21623XXSP,2013-12-03 22:06:00,
2013-12-03 14:11:00,26.2,19.2,29.70,NW,315,2.2,5.4,74,0.00,,,0.00,WUHU21623XXSP,2013-12-03 22:11:00,
2013-12-03 14:18:00,26.2,19.3,29.70,NNW,337,5.1,5.1,75,0.00,,,0.00,WUHU21623XXSP,2013-12-03 22:18:00,
2013-12-03 14:23:00,26.2,19.3,29.70,NNW,337,4.0,5.1,75,0.00,,,0.00,WUHU21623XXSP,2013-12-03 22:23:00,
2013-12-03 14:28:00,26.1,19.1,29.70,North,0,0.0,4.0,75,0.00,,,0.00,WUHU21623XXSP,2013-12-03 22:28:00,
2013-12-03 14:33:00,26.1,19.1,29.70,WNW,292,3.8,3.8,75,0.00,,,0.00,WUHU21623XXSP,2013-12-03 22:33:00,
2013-12-03 14:38:00,26.2,19.3,29.70,WNW,292,0.0,3.8,75,0.00,,,0.00,WUHU21623XXSP,2013-12-03 22:38:00,
2013-12-03 14:43:00,26.2,19.3,29.71,NW,315,1.1,1.1,75,0.00,,,0.00,WUHU21623XXSP,2013-12-03 22:43:00,
2013-12-03 14:48:00,26.4,19.5,29.71,NW,315,1.3,1.3,75,0.00,,,0.00,WUHU21623XXSP,2013-12-03 22:48:00,
2013-12-03 14:57:00,26.4,19.2,29.72,WNW,292,4.5,4.5,74,0.00,,,0.00,WUHU21623XXSP,2013-12-03 22:57:00,
2013-12-03 15:02:00,26.4,19.2,29.72,WNW,292,2.9,4.5,74,0.00,,,0.00,WUHU21623XXSP,2013-12-03 23:02:00,
2013-12-03 15:07:00,26.4,19.2,29.72,WNW,292,1.8,2.9,74,0.00,,,0.00,WUHU21623XXSP,2013-12-03 23:07:00,
2013-12-03 15:12:00,26.4,19.2,29.72,NW,315,2.2,2.9,74,0.00,,,0.00,WUHU21623XXSP,2013-12-03 23:12:00,
2013-12-03 15:18:00,26.1,18.8,29.72,NW,315,3.6,3.6,74,0.00,,,0.00,WUHU21623XXSP,2013-12-03 23:18:00,
2013-12-03 15:23:00,25.9,19.1,29.72,WNW,292,1.6,3.6,75,0.00,,,0.00,WUHU21623XXSP,2013-12-03 23:23:00,
2013-12-03 15:28:00,25.9,19.0,29.73,NW,315,5.1,5.1,75,0.00,,,0.00,WUHU21623XXSP,2013-12-03 23:28:00,
2013-12-03 15:33:00,25.7,18.8,29.72,West,270,2.5,5.1,75,0.00,,,0.00,WUHU21623XXSP,2013-12-03 23:33:00,
2013-12-03 15:40:00,25.7,18.8,29.73,WNW,292,2.0,3.1,75,0.00,,,0.00,WUHU21623XXSP,2013-12-03 23:40:00,
2013-12-03 15:45:00,25.5,18.8,29.73,WNW,292,1.6,2.0,75,0.00,,,0.00,WUHU21623XXSP,2013-12-03 23:45:00,
2013-12-03 15:50:00,25.5,18.6,29.73,NW,315,3.6,3.6,75,0.00,,,0.00,WUHU21623XXSP,2013-12-03 23:50:00,
2013-12-03 15:55:00,25.5,18.6,29.73,WNW,292,3.4,3.6,75,0.00,,,0.00,WUHU21623XXSP,2013-12-03 23:55:00,
2013-12-03 16:01:00,25.3,18.5,29.73,WNW,292,1.8,3.4,75,0.00,,,0.00,WUHU21623XXSP,2013-12-04 00:01:00,
2013-12-03 16:08:00,25.2,18.3,29.73,WNW,292,2.9,2.9,75,0.00,,,0.00,WUHU21623XXSP,2013-12-04 00:08:00,
2013-12-03 16:13:00,25.2,18.3,29.73,WNW,292,0.0,2.9,75,0.00,,,0.00,WUHU21623XXSP,2013-12-04 00:13:00,
2013-12-03 16:18:00,25.2,18.3,29.73,WNW,292,1.6,1.6,75,0.00,,,0.00,WUHU21623XXSP,2013-12-04 00:18:00,
2013-12-03 16:23:00,25.2,18.3,29.73,WNW,292,0.0,1.6,75,0.00,,,0.00,WUHU21623XXSP,2013-12-04 00:23:00,
2013-12-03 16:28:00,25.0,18.1,29.73,North,0,0.0,0.0,75,0.00,,,0.00,WUHU21623XXSP,2013-12-04 00:28:00,
2013-12-03 16:33:00,25.0,18.1,29.73,NNW,337,2.9,2.9,75,0.00,,,0.00,WUHU21623XXSP,2013-12-04 00:33:00,
2013-12-03 16:38:00,24.6,17.8,29.73,WNW,292,1.8,2.9,75,0.00,,,0.00,WUHU21623XXSP,2013-12-04 00:38:00,
2013-12-03 16:44:00,24.4,17.6,29.73,NNW,337,1.8,2.0,75,0.00,,,0.00,WUHU21623XXSP,2013-12-04 00:44:00,
2013-12-03 16:49:00,24.1,17.6,29.73,WNW,292,0.0,1.8,75,0.00,,,0.00,WUHU21623XXSP,2013-12-04 00:49:00,
2013-12-03 16:55:00,24.1,17.3,29.73,WNW,292,0.0,0.0,75,0.00,,,0.00,WUHU21623XXSP,2013-12-04 00:55:00,
2013-12-03 17:00:00,23.9,17.1,29.73,NNW,337,0.0,0.0,75,0.00,,,0.00,WUHU21623XXSP,2013-12-04 01:00:00,
2013-12-03 17:05:00,23.7,16.9,29.73,WNW,292,0.0,0.0,75,0.00,,,0.00,WUHU21623XXSP,2013-12-04 01:05:00,
2013-12-03 17:10:00,23.4,16.3,29.73,West,270,0.0,0.0,74,0.00,,,0.00,WUHU21623XXSP,2013-12-04 01:10:00,
2013-12-03 17:15:00,23.2,16.1,29.73,WNW,292,0.0,0.0,74,0.00,,,0.00,WUHU21623XXSP,2013-12-04 01:15:00,
2013-12-03 17:20:00,22.8,15.8,29.73,WNW,292,0.0,0.0,74,0.00,,,0.00,WUHU21623XXSP,2013-12-04 01:20:00,
2013-12-03 17:25:00,22.6,15.6,29.74,WNW,292,0.0,0.0,74,0.00,,,0.00,WUHU21623XXSP,2013-12-04 01:25:00,
2013-12-03 17:31:00,22.5,15.4,29.74,WNW,292,0.0,0.0,74,0.00,,,0.00,WUHU21623XXSP,2013-12-04 01:31:00,
2013-12-03 17:38:00,21.9,14.9,29.74,WNW,292,0.0,0.0,74,0.00,,,0.00,WUHU21623XXSP,2013-12-04 01:38:00,
2013-12-03 17:43:00,21.7,14.7,29.74,WNW,292,1.3,1.3,74,0.00,,,0.00,WUHU21623XXSP,2013-12-04 01:43:00,
2013-12-03 17:48:00,21.4,14.0,29.74,NW,315,0.0,1.3,73,0.00,,,0.00,WUHU21623XXSP,2013-12-04 01:48:00,
2013-12-03 17:53:00,21.0,14.3,29.74,NW,315,2.5,2.5,74,0.00,,,0.00,WUHU21623XXSP,2013-12-04 01:53:00,
2013-12-03 17:58:00,21.0,14.0,29.74,NNW,337,2.7,2.7,74,0.00,,,0.00,WUHU21623XXSP,2013-12-04 01:58:00,
2013-12-03 18:03:00,20.8,14.1,29.74,WNW,292,0.0,2.7,75,0.00,,,0.00,WUHU21623XXSP,2013-12-04 02:03:00,
2013-12-03 18:10:00,20.5,13.7,29.74,WNW,292,0.0,0.0,75,0.00,,,0.00,WUHU21623XXSP,2013-12-04 02:10:00,
2013-12-03 18:15:00,20.5,13.7,29.74,WNW,292,0.0,0.0,75,0.00,,,0.00,WUHU21623XXSP,2013-12-04 02:15:00,
2013-12-03 18:23:00,20.1,13.1,29.74,NNW,337,0.0,0.0,74,0.00,,,0.00,WUHU21623XXSP,2013-12-04 02:23:00,
2013-12-03 18:28:00,19.9,12.9,29.74,NNW,337,0.0,0.0,74,0.00,,,0.00,WUHU21623XXSP,2013-12-04 02:28:00,
2013-12-03 18:33:00,19.9,12.9,29.74,NNW,337,0.0,0.0,74,0.00,,,0.00,WUHU21623XXSP,2013-12-04 02:33:00,
2013-12-03 18:38:00,19.8,12.7,29.75,NNW,337,0.0,0.0,74,0.00,,,0.00,WUHU21623XXSP,2013-12-04 02:38:00,
2013-12-03 18:43:00,19.6,12.8,29.75,NNW,337,0.0,0.0,75,0.00,,,0.00,WUHU21623XXSP,2013-12-04 02:43:00,
2013-12-03 18:48:00,19.2,12.5,29.75,NNW,337,0.0,0.0,75,0.00,,,0.00,WUHU21623XXSP,2013-12-04 02:48:00,
2013-12-03 18:53:00,19.2,12.2,29.75,NNW,337,0.0,0.0,74,0.00,,,0.00,WUHU21623XXSP,2013-12-04 02:53:00,
2013-12-03 19:03:00,18.7,11.7,29.75,NNE,22,0.0,0.0,74,0.00,,,0.00,WUHU21623XXSP,2013-12-04 03:03:00,
2013-12-03 19:10:00,18.5,11.5,29.75,NNE,22,0.0,0.0,74,0.00,,,0.00,WUHU21623XXSP,2013-12-04 03:10:00,
2013-12-03 19:15:00,18.3,11.3,29.75,NNE,22,0.0,0.0,74,0.00,,,0.00,WUHU21623XXSP,2013-12-04 03:15:00,
2013-12-03 19:20:00,18.1,11.2,29.75,NNE,22,0.0,0.0,74,0.00,,,0.00,WUHU21623XXSP,2013-12-04 03:20:00,
2013-12-03 19:25:00,17.8,10.8,29.75,NNE,22,0.0,0.0,74,0.00,,,0.00,WUHU21623XXSP,2013-12-04 03:25:00,
2013-12-03 19:30:00,17.4,10.5,29.75,NNE,22,0.0,0.0,74,0.00,,,0.00,WUHU21623XXSP,2013-12-04 03:30:00,
2013-12-03 19:35:00,17.2,10.3,29.76,NNE,22,0.0,0.0,74,0.00,,,0.00,WUHU21623XXSP,2013-12-04 03:35:00,
2013-12-03 19:42:00,16.7,9.8,29.76,NNE,22,0.0,0.0,74,0.00,,,0.00,WUHU21623XXSP,2013-12-04 03:42:00,
2013-12-03 19:52:00,16.0,9.1,29.75,SSE,157,0.0,0.0,74,0.00,,,0.00,WUHU21623XXSP,2013-12-04 03:52:00,
2013-12-03 20:03:00,15.4,8.6,29.76,SSE,157,0.0,0.0,74,0.00,,,0.00,WUHU21623XXSP,2013-12-04 04:03:00,
2013-12-03 20:08:00,15.1,7.9,29.76,SSE,157,0.0,0.0,73,0.00,,,0.00,WUHU21623XXSP,2013-12-04 04:08:00,
2013-12-03 20:14:00,14.7,7.6,29.76,SSE,157,0.0,0.0,73,0.00,,,0.00,WUHU21623XXSP,2013-12-04 04:14:00,
2013-12-03 20:19:00,14.4,7.3,29.76,SSE,157,0.0,0.0,73,0.00,,,0.00,WUHU21623XXSP,2013-12-04 04:19:00,
2013-12-03 20:24:00,14.2,7.4,29.75,East,90,0.0,0.0,74,0.00,,,0.00,WUHU21623XXSP,2013-12-04 04:24:00,
2013-12-03 20:29:00,14.0,7.2,29.76,NE,45,0.0,0.0,74,0.00,,,0.00,WUHU21623XXSP,2013-12-04 04:29:00,
2013-12-03 20:34:00,13.6,7.1,29.76,NW,315,0.0,0.0,74,0.00,,,0.00,WUHU21623XXSP,2013-12-04 04:34:00,
2013-12-03 20:40:00,13.5,6.7,29.77,SSW,202,0.0,0.0,74,0.00,,,0.00,WUHU21623XXSP,2013-12-04 04:40:00,
2013-12-03 20:45:00,13.1,6.5,29.77,SE,135,0.0,0.0,74,0.00,,,0.00,WUHU21623XXSP,2013-12-04 04:45:00,
2013-12-03 20:50:00,12.7,6.0,29.76,WNW,292,0.0,0.0,74,0.00,,,0.00,WUHU21623XXSP,2013-12-04 04:50:00,
2013-12-03 20:55:00,12.6,5.8,29.76,NE,45,0.0,0.0,74,0.00,,,0.00,WUHU21623XXSP,2013-12-04 04:55:00,
2013-12-03 21:00:00,12.4,5.6,29.76,NE,45,0.0,0.0,74,0.00,,,0.00,WUHU21623XXSP,2013-12-04 05:00:00,
2013-12-03 21:01:00,12.4,5.6,29.76,NE,45,0.0,0.0,74,0.00,,,0.00,WUHU21623XXSP,2013-12-04 05:01:00,
2013-12-03 21:02:00,12.0,5.3,29.76,NE,45,0.0,0.0,74,0.00,,,0.00,WUHU21623XXSP,2013-12-04 05:02:00,
2013-12-03 21:10:00,11.7,4.9,29.77,NE,45,0.0,0.0,74,0.00,,,0.00,WUHU21623XXSP,2013-12-04 05:10:00,
2013-12-03 21:15:00,11.5,4.7,29.77,NE,45,0.0,0.0,74,0.00,,,0.00,WUHU21623XXSP,2013-12-04 05:15:00,
2013-12-03 21:20:00,11.1,4.4,29.77,SE,135,0.0,0.0,74,0.00,,,0.00,WUHU21623XXSP,2013-12-04 05:20:00,
2013-12-03 21:27:00,10.9,4.2,29.77,SSW,202,0.0,0.0,74,0.00,,,0.00,WUHU21623XXSP,2013-12-04 05:27:00,
2013-12-03 21:32:00,10.6,3.8,29.77,SW,225,0.0,0.0,74,0.00,,,0.00,WUHU21623XXSP,2013-12-04 05:32:00,
2013-12-03 21:37:00,10.6,3.8,29.76,SSE,157,0.0,0.0,74,0.00,,,0.00,WUHU21623XXSP,2013-12-04 05:37:00,
2013-12-03 21:42:00,10.2,3.5,29.76,SSE,157,0.0,0.0,74,0.00,,,0.00,WUHU21623XXSP,2013-12-04 05:42:00,
2013-12-03 21:47:00,10.2,3.5,29.77,East,90,0.0,0.0,74,0.00,,,0.00,WUHU21623XXSP,2013-12-04 05:47:00,
2013-12-03 21:52:00,10.0,3.3,29.75,ESE,112,0.0,0.0,74,0.00,,,0.00,WUHU21623XXSP,2013-12-04 05:52:00,
2013-12-03 21:57:00,10.0,3.3,29.75,NE,45,0.0,0.0,74,0.00,,,0.00,WUHU21623XXSP,2013-12-04 05:57:00,
2013-12-03 22:02:00,9.7,3.0,29.76,ESE,112,0.0,0.0,74,0.00,,,0.00,WUHU21623XXSP,2013-12-04 06:02:00,
2013-12-03 22:07:00,9.7,3.0,29.76,ESE,112,0.0,0.0,74,0.00,,,0.00,WUHU21623XXSP,2013-12-04 06:07:00,
2013-12-03 22:14:00,9.3,2.7,29.76,ESE,112,0.0,0.0,74,0.00,,,0.00,WUHU21623XXSP,2013-12-04 06:14:00,
2013-12-03 22:20:00,9.1,2.5,29.76,NE,45,0.0,0.0,74,0.00,,,0.00,WUHU21623XXSP,2013-12-04 06:20:00,
2013-12-03 22:25:00,9.0,2.3,29.76,NE,45,0.0,0.0,74,0.00,,,0.00,WUHU21623XXSP,2013-12-04 06:25:00,
2013-12-03 22:31:00,8.8,2.2,29.76,NNW,337,0.0,0.0,74,0.00,,,0.00,WUHU21623XXSP,2013-12-04 06:31:00,
2013-12-03 22:36:00,8.8,2.2,29.76,NNW,337,0.0,0.0,74,0.00,,,0.00,WUHU21623XXSP,2013-12-04 06:36:00,
2013-12-03 22:41:00,8.4,2.0,29.76,WNW,292,0.0,0.0,74,0.00,,,0.00,WUHU21623XXSP,2013-12-04 06:41:00,
2013-12-03 22:48:00,8.4,1.8,29.76,NNW,337,0.0,0.0,74,0.00,,,0.00,WUHU21623XXSP,2013-12-04 06:48:00,
2013-12-03 22:55:00,8.4,1.8,29.75,NNW,337,0.0,0.0,74,0.00,,,0.00,WUHU21623XXSP,2013-12-04 06:55:00,
2013-12-03 23:01:00,8.2,1.7,29.76,NNW,337,0.0,0.0,74,0.00,,,0.00,WUHU21623XXSP,2013-12-04 07:01:00,
2013-12-03 23:06:00,8.2,1.7,29.76,NNW,337,0.0,0.0,74,0.00,,,0.00,WUHU21623XXSP,2013-12-04 07:06:00,
2013-12-03 23:11:00,8.1,1.5,29.76,NNW,337,0.0,0.0,74,0.00,,,0.00,WUHU21623XXSP,2013-12-04 07:11:00,
2013-12-03 23:16:00,7.9,1.3,29.76,NNW,337,0.0,0.0,74,0.00,,,0.00,WUHU21623XXSP,2013-12-04 07:16:00,
2013-12-03 23:21:00,7.9,1.3,29.76,NNW,337,0.0,0.0,74,0.00,,,0.00,WUHU21623XXSP,2013-12-04 07:21:00,
2013-12-03 23:27:00,7.9,1.6,29.75,NNW,337,0.0,0.0,75,0.00,,,0.00,WUHU21623XXSP,2013-12-04 07:27:00,
2013-12-03 23:33:00,7.9,1.6,29.76,ESE,112,0.0,0.0,75,0.00,,,0.00,WUHU21623XXSP,2013-12-04 07:33:00,
2013-12-03 23:38:00,7.9,1.6,29.76,ESE,112,0.0,0.0,75,0.00,,,0.00,WUHU21623XXSP,2013-12-04 07:38:00,
2013-12-03 23:43:00,7.9,1.6,29.76,NE,45,0.0,0.0,75,0.00,,,0.00,WUHU21623XXSP,2013-12-04 07:43:00,
2013-12-03 23:48:00,8.1,1.8,29.76,ENE,67,0.0,0.0,75,0.00,,,0.00,WUHU21623XXSP,2013-12-04 07:48:00,
2013-12-03 23:53:00,8.1,2.0,29.76,East,90,0.0,0.0,76,0.00,,,0.00,WUHU21623XXSP,2013-12-04 07:53:00,
2013-12-03 23:58:00,8.2,2.2,29.75,East,90,0.0,0.0,76,0.00,,,0.00,WUHU21623XXSP,2013-12-04 07:58:00,